Time;durP1;ratioP1;P1;durP2;ratioP2;P2;SDS_P1;SDS_P2;PMS_P1;PMS_P2;Temp;Humidity;BMP_temperature;BMP_pressure;BME280_temperature;BME280_humidity;BME280_pressure;Samples;Min_cycle;Max_cycle;Signal;HPM_P1;HPM_P2
2023/04/25 00:02:22;;;;;;;34.50;5.47;;;;;;;5.66;100.00;101161.94;10361630;28;20133;-73
2023/04/25 00:07:22;;;;;;;22.70;5.07;;;;;;;5.54;100.00;101168.56;10381371;28;20035;-72
2023/04/25 00:12:22;;;;;;;9.30;4.18;;;;;;;5.47;100.00;101167.53;10363404;28;20081;-71
2023/04/25 00:17:24;;;;;;;13.20;4.85;;;;;;;5.39;100.00;101172.81;10381106;28;20512;-71
2023/04/25 00:22:24;;;;;;;9.02;4.75;;;;;;;5.29;100.00;101178.28;10380927;28;20095;-72
2023/04/25 00:27:25;;;;;;;12.35;4.03;;;;;;;5.47;100.00;101180.97;10346785;28;20045;-70
2023/04/25 00:32:25;;;;;;;16.00;4.13;;;;;;;5.62;100.00;101170.50;10379881;28;20121;-72
2023/04/25 00:37:26;;;;;;;19.75;4.50;;;;;;;5.82;100.00;101166.56;10378874;28;20073;-72
2023/04/25 00:42:26;;;;;;;11.20;4.70;;;;;;;6.01;100.00;101165.50;10380198;28;20041;-71
2023/04/25 00:47:27;;;;;;;15.27;4.00;;;;;;;6.13;100.00;101174.16;10361767;28;20551;-72
2023/04/25 00:52:27;;;;;;;16.75;4.72;;;;;;;6.26;100.00;101186.13;10346135;28;20232;-70
2023/04/25 00:57:28;;;;;;;28.35;5.28;;;;;;;6.34;100.00;101181.75;10345014;28;20038;-72
2023/04/25 01:02:28;;;;;;;14.00;3.85;;;;;;;6.38;100.00;101183.97;10378841;28;20045;-70
2023/04/25 01:07:29;;;;;;;17.58;5.15;;;;;;;6.35;100.00;101186.13;10378516;28;20045;-71
2023/04/25 01:12:29;;;;;;;13.55;4.38;;;;;;;6.23;100.00;101181.06;10377521;28;20030;-72
2023/04/25 01:17:31;;;;;;;13.90;4.70;;;;;;;6.24;100.00;101190.81;10361504;28;20451;-72
2023/04/25 01:22:32;;;;;;;7.25;4.47;;;;;;;6.21;100.00;101196.50;10376675;28;20473;-72
2023/04/25 01:27:32;;;;;;;10.25;3.75;;;;;;;6.03;100.00;101195.75;10360172;28;20034;-70
2023/04/25 01:32:38;;;;;;;12.15;3.75;;;;;;;5.90;100.00;101198.00;10343408;28;20029;-71
2023/04/25 01:37:41;;;;;;;10.90;3.92;;;;;;;5.83;100.00;101206.69;10345403;28;20045;-71
2023/04/25 01:42:42;;;;;;;8.82;3.50;;;;;;;5.75;100.00;101206.66;10377557;28;20487;-70
2023/04/25 01:47:43;;;;;;;10.85;3.55;;;;;;;5.68;100.00;101205.63;10360055;28;20072;-70
2023/04/25 01:52:44;;;;;;;10.57;3.42;;;;;;;5.70;100.00;101208.13;10334759;28;20054;-71
2023/04/25 01:57:44;;;;;;;8.93;3.08;;;;;;;5.83;100.00;101208.53;10318100;28;20036;-69
2023/04/25 02:02:45;;;;;;;8.07;3.90;;;;;;;5.96;100.00;101206.31;10334959;28;20081;-69
2023/04/25 02:07:45;;;;;;;6.38;3.60;;;;;;;6.10;100.00;101212.94;10334323;28;20058;-71
2023/04/25 02:12:46;;;;;;;7.50;3.53;;;;;;;6.16;100.00;101209.63;10333497;28;20027;-71
2023/04/25 02:17:46;;;;;;;12.88;4.55;;;;;;;6.27;100.00;101213.84;10335281;28;20041;-71
2023/04/25 02:22:47;;;;;;;12.80;3.85;;;;;;;6.29;100.00;101222.59;10334425;28;20038;-73
2023/04/25 02:27:47;;;;;;;8.88;3.83;;;;;;;6.29;100.00;101218.06;10335251;28;20043;-72
2023/04/25 02:32:48;;;;;;;9.05;3.25;;;;;;;6.26;100.00;101220.25;10334933;28;20427;-72
2023/04/25 02:37:48;;;;;;;14.00;4.28;;;;;;;6.24;100.00;101223.06;10333237;28;20054;-72
2023/04/25 02:42:48;;;;;;;13.65;3.38;;;;;;;6.28;100.00;101229.81;10334127;28;20049;-70
2023/04/25 02:47:49;;;;;;;8.73;2.80;;;;;;;6.33;100.00;101228.50;10335050;28;20038;-73
2023/04/25 02:52:49;;;;;;;8.13;2.22;;;;;;;6.38;100.00;101220.78;10363136;28;20058;-72
2023/04/25 02:57:50;;;;;;;18.35;4.22;;;;;;;6.36;100.00;101223.63;10374625;28;20607;-71
2023/04/25 03:02:50;;;;;;;17.15;4.30;;;;;;;6.34;100.00;101220.25;10357095;28;20033;-72
2023/04/25 03:07:51;;;;;;;9.32;4.30;;;;;;;6.35;100.00;101221.09;10375337;28;20057;-71
2023/04/25 03:12:51;;;;;;;8.77;3.55;;;;;;;6.38;100.00;101231.53;10374402;28;20080;-71
2023/04/25 03:17:51;;;;;;;6.78;3.70;;;;;;;6.37;100.00;101219.09;10373728;28;20389;-72
2023/04/25 03:22:52;;;;;;;9.02;3.25;;;;;;;6.34;100.00;101222.13;10356376;28;20049;-71
2023/04/25 03:27:52;;;;;;;8.80;2.92;;;;;;;6.37;100.00;101229.84;10356129;28;20077;-71
2023/04/25 03:32:53;;;;;;;7.57;2.60;;;;;;;6.33;100.00;101223.97;10370918;28;20030;-69
2023/04/25 03:37:53;;;;;;;9.70;2.90;;;;;;;6.37;100.00;101230.69;10372421;28;20041;-72
2023/04/25 03:42:54;;;;;;;3.80;2.90;;;;;;;6.42;100.00;101232.91;10356543;28;20110;-72
2023/04/25 03:47:54;;;;;;;8.15;2.75;;;;;;;6.45;100.00;101249.56;10355531;28;20037;-70
2023/04/25 03:52:55;;;;;;;7.05;2.67;;;;;;;6.44;100.00;101238.97;10372293;28;20050;-72
2023/04/25 03:57:55;;;;;;;9.63;3.33;;;;;;;6.44;100.00;101247.03;10340137;28;20034;-71
2023/04/25 04:02:55;;;;;;;12.05;3.00;;;;;;;6.45;100.00;101256.81;10340737;28;20034;-72
2023/04/25 04:07:56;;;;;;;5.63;2.35;;;;;;;6.39;100.00;101260.97;10355114;28;20080;-72
2023/04/25 04:12:56;;;;;;;3.30;2.58;;;;;;;6.37;100.00;101260.28;10338755;28;20080;-70
2023/04/25 04:17:57;;;;;;;14.07;3.03;;;;;;;6.40;100.00;101272.56;10355929;28;20489;-72
2023/04/25 04:22:57;;;;;;;9.25;2.58;;;;;;;6.38;100.00;101266.50;10372448;28;20034;-71
2023/04/25 04:27:58;;;;;;;4.03;2.67;;;;;;;6.31;100.00;101268.16;10372420;28;20529;-72
2023/04/25 04:32:59;;;;;;;12.70;2.95;;;;;;;6.10;100.00;101261.34;10372362;28;20045;-71
2023/04/25 04:37:59;;;;;;;7.97;3.22;;;;;;;5.91;100.00;101269.59;10354830;28;20038;-72
2023/04/25 04:42:59;;;;;;;8.45;2.78;;;;;;;5.73;100.00;101272.31;10338277;28;20038;-71
2023/04/25 04:48:00;;;;;;;15.38;3.65;;;;;;;5.69;100.00;101284.38;10376079;28;20111;-72
2023/04/25 04:53:00;;;;;;;8.57;3.53;;;;;;;5.89;100.00;101285.84;10379047;28;20461;-71
2023/04/25 04:58:01;;;;;;;4.97;3.13;;;;;;;5.97;100.00;101301.25;10377562;28;20045;-71
2023/04/25 05:03:01;;;;;;;11.57;2.53;;;;;;;5.89;100.00;101306.53;10361190;28;20108;-71
2023/04/25 05:08:01;;;;;;;12.32;3.35;;;;;;;5.97;100.00;101310.16;10378703;28;20075;-69
2023/04/25 05:13:02;;;;;;;5.05;2.33;;;;;;;5.90;100.00;101319.78;10378954;28;20065;-71
2023/04/25 05:18:03;;;;;;;6.72;3.15;;;;;;;5.89;100.00;101334.25;10378218;28;20069;-71
2023/04/25 05:23:03;;;;;;;5.93;2.92;;;;;;;5.83;100.00;101359.06;10360354;28;20038;-72
2023/04/25 05:28:05;;;;;;;5.35;2.70;;;;;;;5.73;100.00;101353.75;10306749;28;20058;-70
2023/04/25 05:33:06;;;;;;;3.67;2.92;;;;;;;5.91;100.00;101361.81;10360825;28;20030;-70
2023/04/25 05:38:06;;;;;;;4.60;2.38;;;;;;;6.38;100.00;101366.91;10376706;28;20497;-71
2023/04/25 05:43:07;;;;;;;3.80;1.85;;;;;;;7.35;100.00;101364.78;10358602;28;20083;-72
2023/04/25 05:48:07;;;;;;;4.05;1.92;;;;;;;7.43;100.00;101368.34;10358695;28;20034;-72
2023/04/25 05:53:09;;;;;;;12.93;2.25;;;;;;;7.36;100.00;101378.06;10378566;28;20049;-70
2023/04/25 05:58:09;;;;;;;6.18;2.10;;;;;;;7.19;100.00;101381.75;10377701;28;20041;-71
2023/04/25 06:03:10;;;;;;;4.80;1.83;;;;;;;6.99;100.00;101389.25;10376333;28;20037;-71
2023/04/25 06:08:10;;;;;;;5.32;2.08;;;;;;;6.94;100.00;101386.19;10376957;28;20049;-70
2023/04/25 06:13:11;;;;;;;5.68;2.30;;;;;;;7.16;100.00;101399.06;10358413;28;20089;-72
2023/04/25 06:18:11;;;;;;;3.88;1.83;;;;;;;7.20;100.00;101408.50;10343125;28;20129;-71
2023/04/25 06:23:11;;;;;;;6.13;2.65;;;;;;;7.18;100.00;101418.59;10341737;28;20041;-71
2023/04/25 06:28:12;;;;;;;4.30;1.77;;;;;;;7.30;100.00;101415.59;10375806;28;20066;-72
2023/04/25 06:33:12;;;;;;;14.85;2.50;;;;;;;7.34;100.00;101422.34;10375757;28;20502;-71
2023/04/25 06:38:13;;;;;;;8.98;3.60;;;;;;;7.43;100.00;101422.22;10357780;28;20057;-71
2023/04/25 06:43:14;;;;;;;3.47;2.08;;;;;;;7.63;100.00;101438.09;10375545;28;20128;-72
2023/04/25 06:48:15;;;;;;;3.17;2.15;;;;;;;7.59;100.00;101428.66;10357722;28;20385;-71
2023/04/25 06:53:15;;;;;;;5.15;2.25;;;;;;;7.62;100.00;101434.53;10357115;28;20057;-71
2023/04/25 06:58:16;;;;;;;7.35;2.78;;;;;;;9.59;100.00;101442.34;10357553;28;20045;-72
2023/04/25 07:03:16;;;;;;;11.60;2.95;;;;;;;11.63;100.00;101434.94;10373492;28;20400;-72
2023/04/25 07:08:17;;;;;;;9.63;1.98;;;;;;;13.57;100.00;101433.50;10355735;28;20038;-72
2023/04/25 07:13:17;;;;;;;2.13;1.65;;;;;;;14.91;100.00;101424.38;10375032;28;20381;-73
2023/04/25 07:18:18;;;;;;;14.02;2.65;;;;;;;13.49;100.00;101439.09;10374169;28;20181;-72
2023/04/25 07:23:18;;;;;;;4.80;2.58;;;;;;;13.20;100.00;101451.09;10355919;28;20034;-71
2023/04/25 07:28:18;;;;;;;1.58;1.48;;;;;;;12.09;100.00;101449.03;10373491;28;20034;-69
2023/04/25 07:33:20;;;;;;;2.20;1.65;;;;;;;13.21;100.00;101459.06;10374165;28;20060;-71
2023/04/25 07:38:20;;;;;;;9.73;2.45;;;;;;;13.46;100.00;101462.16;10339600;28;20441;-70
2023/04/25 07:43:21;;;;;;;3.20;1.88;;;;;;;13.37;100.00;101466.09;10372588;28;20045;-72
2023/04/25 07:48:21;;;;;;;2.35;1.58;;;;;;;13.42;100.00;101460.84;10374143;28;20123;-71
2023/04/25 07:53:21;;;;;;;10.82;2.03;;;;;;;11.64;100.00;101469.16;10373120;28;20143;-71
2023/04/25 07:58:22;;;;;;;1.63;1.50;;;;;;;10.69;100.00;101484.34;10372576;28;20045;-71
2023/04/25 08:03:22;;;;;;;6.15;1.95;;;;;;;11.77;100.00;101487.47;10356388;28;20061;-70
2023/04/25 08:08:23;;;;;;;3.83;2.15;;;;;;;11.46;100.00;101494.00;10339857;28;20117;-70
2023/04/25 08:13:23;;;;;;;8.45;1.90;;;;;;;11.78;100.00;101511.72;10358753;28;20069;-70
2023/04/25 08:18:24;;;;;;;4.63;1.50;;;;;;;12.61;100.00;101514.91;10338511;28;20037;-71
2023/04/25 08:23:24;;;;;;;2.20;1.50;;;;;;;12.53;100.00;101529.44;10378327;28;20037;-70
2023/04/25 08:28:24;;;;;;;2.88;1.58;;;;;;;12.41;100.00;101533.75;10379816;28;20069;-71
2023/04/25 08:33:25;;;;;;;12.85;2.15;;;;;;;12.86;100.00;101531.63;10381085;28;20033;-71
2023/04/25 08:38:26;;;;;;;8.45;2.25;;;;;;;11.61;100.00;101553.63;10364927;28;20121;-71
2023/04/25 08:43:26;;;;;;;6.28;1.60;;;;;;;12.23;100.00;101555.06;10380420;28;20490;-70
2023/04/25 08:48:27;;;;;;;4.47;2.38;;;;;;;12.51;100.00;101560.56;10345171;28;20038;-70
2023/04/25 08:53:28;;;;;;;4.68;1.80;;;;;;;12.47;100.00;101565.53;10328653;28;20049;-71
2023/04/25 08:58:29;;;;;;;3.40;2.15;;;;;;;15.13;100.00;101576.88;10362147;28;20034;-71
2023/04/25 09:03:29;;;;;;;4.15;1.38;;;;;;;15.89;100.00;101582.63;10378793;28;20446;-72
2023/04/25 09:08:30;;;;;;;3.38;2.38;;;;;;;14.70;100.00;101593.63;10379690;28;20061;-71
2023/04/25 09:13:30;;;;;;;6.43;1.90;;;;;;;15.96;100.00;101588.88;10378817;28;20073;-72
2023/04/25 09:18:33;;;;;;;6.72;1.75;;;;;;;16.36;100.00;101596.88;10361590;28;20437;-71
2023/04/25 09:23:40;;;;;;;4.95;2.50;;;;;;;17.46;100.00;101595.66;10378551;28;20366;-71
2023/04/25 09:28:42;;;;;;;2.30;1.90;;;;;;;17.46;100.00;101601.13;10360239;28;20029;-72
2023/04/25 09:33:43;;;;;;;5.03;2.28;;;;;;;16.54;100.00;101622.66;10359052;28;20034;-71
2023/04/25 09:38:44;;;;;;;8.38;1.92;;;;;;;17.15;100.00;101602.88;10360251;28;20095;-70
2023/04/25 09:43:46;;;;;;;2.75;2.20;;;;;;;18.45;100.00;101615.56;10377237;28;20466;-70
2023/04/25 09:48:50;;;;;;;4.72;1.67;;;;;;;17.26;100.00;101610.38;10342750;28;20044;-73
2023/04/25 09:53:50;;;;;;;1.58;1.45;;;;;;;15.39;100.00;101631.44;10359152;28;20153;-71
2023/04/25 09:58:51;;;;;;;10.00;2.15;;;;;;;17.01;100.00;101628.69;10376944;28;20034;-71
2023/04/25 10:03:51;;;;;;;3.33;2.00;;;;;;;18.03;100.00;101637.41;10342536;28;20056;-70
2023/04/25 10:08:52;;;;;;;6.07;2.30;;;;;;;17.69;100.00;101642.38;10358364;28;20061;-72
2023/04/25 10:13:52;;;;;;;2.30;2.10;;;;;;;17.96;100.00;101640.19;10375723;28;20065;-71
2023/04/25 10:18:52;;;;;;;8.65;1.92;;;;;;;16.82;100.00;101646.91;10341868;28;20437;-71
2023/04/25 10:23:53;;;;;;;6.00;2.10;;;;;;;14.09;100.00;101660.72;10341540;28;20037;-71
2023/04/25 10:28:59;;;;;;;4.68;2.95;;;;;;;14.89;100.00;101666.44;10357682;28;20040;-70
2023/04/25 10:34:00;;;;;;;2.42;2.22;;;;;;;16.43;100.00;101656.97;10358714;28;20030;-71
2023/04/25 10:39:08;;;;;;;13.32;1.95;;;;;;;14.94;100.00;101669.41;10376279;28;20103;-70
2023/04/25 10:44:09;;;;;;;9.63;2.33;;;;;;;15.23;100.00;101678.25;10375118;28;20037;-72
2023/04/25 10:49:10;;;;;;;6.28;1.80;;;;;;;15.72;100.00;101680.53;10357082;28;20122;-71
2023/04/25 10:54:10;;;;;;;4.15;2.22;;;;;;;13.95;100.00;101673.44;10356015;28;20461;-69
2023/04/25 10:59:11;;;;;;;6.50;2.75;;;;;;;14.97;100.00;101673.59;10324515;28;20041;-70
2023/04/25 11:04:21;;;;;;;10.55;2.58;;;;;;;16.86;100.00;101673.59;10374224;28;20072;-71
2023/04/25 11:09:23;;;;;;;4.13;1.85;;;;;;;16.34;100.00;101689.22;10356467;28;20033;-70
2023/04/25 11:14:24;;;;;;;2.60;1.60;;;;;;;16.96;91.24;101682.16;10356814;28;20069;-73
2023/04/25 11:19:25;;;;;;;2.72;1.95;;;;;;;17.39;85.61;101675.94;10375071;28;20050;-71
2023/04/25 11:24:29;;;;;;;2.53;1.63;;;;;;;17.84;88.70;101685.88;10373151;28;20442;-72
2023/04/25 11:29:30;;;;;;;4.90;2.35;;;;;;;18.88;86.90;101685.88;10356778;28;20446;-72
2023/04/25 11:34:32;;;;;;;3.67;1.40;;;;;;;17.80;91.06;101692.84;10373513;28;20034;-71
2023/04/25 11:39:33;;;;;;;9.18;1.90;;;;;;;15.81;79.43;101698.38;10373505;28;20034;-72
2023/04/25 11:44:33;;;;;;;3.22;1.83;;;;;;;17.48;82.50;101694.81;10373426;28;20120;-72
2023/04/25 11:49:35;;;;;;;6.45;1.83;;;;;;;17.34;81.44;101694.09;10356214;28;20037;-72
2023/04/25 11:54:36;;;;;;;2.00;1.60;;;;;;;19.20;78.34;101703.72;10341217;28;20056;-74
2023/04/25 11:59:37;;;;;;;9.43;2.65;;;;;;;18.63;62.91;101703.25;10347858;28;20382;-73
2023/04/25 12:04:38;;;;;;;10.95;1.83;;;;;;;16.30;74.45;101718.00;10363422;28;20123;-71
2023/04/25 12:09:39;;;;;;;1.67;1.60;;;;;;;13.88;75.59;101721.56;10346824;28;20038;-71
2023/04/25 12:14:40;;;;;;;4.10;2.25;;;;;;;15.14;84.96;101721.25;10362933;28;20030;-72
2023/04/25 12:19:43;;;;;;;2.42;2.22;;;;;;;15.71;89.78;101717.09;10379723;28;20038;-72
2023/04/25 12:24:44;;;;;;;5.18;1.98;;;;;;;15.18;87.67;101724.41;10363184;28;20041;-71
2023/04/25 12:29:52;;;;;;;2.63;2.15;;;;;;;15.40;82.16;101722.31;10362812;28;20033;-70
2023/04/25 12:34:52;;;;;;;2.90;1.77;;;;;;;14.25;77.57;101726.78;10362721;28;20030;-71
2023/04/25 12:39:53;;;;;;;6.57;1.85;;;;;;;16.45;81.86;101740.47;10379041;28;20048;-71
2023/04/25 12:44:53;;;;;;;3.42;2.17;;;;;;;17.04;85.06;101741.28;10379558;28;20029;-70
2023/04/25 12:49:54;;;;;;;1.60;1.50;;;;;;;17.91;73.85;101740.63;10361069;28;20157;-72
2023/04/25 12:54:54;;;;;;;3.10;1.58;;;;;;;17.98;76.33;101747.69;10361336;28;20116;-72
2023/04/25 12:59:55;;;;;;;1.45;1.35;;;;;;;18.38;73.30;101733.56;10378650;28;20060;-72
2023/04/25 13:04:55;;;;;;;2.92;1.55;;;;;;;16.32;68.27;101745.97;10362737;28;20029;-71
2023/04/25 13:09:56;;;;;;;2.70;2.17;;;;;;;16.56;67.56;101743.56;10358922;28;20398;-70
2023/04/25 13:14:56;;;;;;;4.45;2.35;;;;;;;15.94;64.76;101740.38;10328479;28;20434;-71
2023/04/25 13:19:57;;;;;;;4.43;1.48;;;;;;;17.03;82.34;101761.47;10361924;28;20042;-71
2023/04/25 13:24:57;;;;;;;5.40;1.67;;;;;;;16.95;72.86;101748.88;10378297;28;20099;-72
2023/04/25 13:29:58;;;;;;;4.88;2.22;;;;;;;15.93;70.10;101764.13;10378277;28;20381;-73
2023/04/25 13:34:58;;;;;;;2.20;2.00;;;;;;;14.78;75.78;101767.97;10359807;28;20084;-73
2023/04/25 13:40:00;;;;;;;2.42;1.83;;;;;;;15.14;80.23;101767.63;10379057;28;20042;-72
2023/04/25 13:45:00;;;;;;;6.78;1.80;;;;;;;14.27;75.67;101771.03;10378183;28;20092;-70
2023/04/25 13:50:03;;;;;;;3.15;1.65;;;;;;;15.20;83.50;101775.00;10377646;28;20119;-72
2023/04/25 13:55:06;;;;;;;5.25;1.80;;;;;;;15.69;81.86;101767.50;10344768;28;20121;-71
2023/04/25 14:00:08;;;;;;;3.05;1.95;;;;;;;15.81;71.29;101772.13;10376776;28;20073;-73
2023/04/25 14:05:09;;;;;;;1.60;1.45;;;;;;;15.78;77.10;101775.28;10342734;28;20461;-71
2023/04/25 14:10:09;;;;;;;1.25;1.17;;;;;;;15.50;82.23;101766.41;10358166;28;20044;-72
2023/04/25 14:15:10;;;;;;;5.15;2.17;;;;;;;15.17;73.82;101772.69;10358231;28;20128;-72
2023/04/25 14:20:11;;;;;;;4.00;2.20;;;;;;;14.95;82.31;101782.91;10376544;28;20030;-73
2023/04/25 14:25:11;;;;;;;1.92;1.35;;;;;;;14.91;78.85;101769.88;10375816;28;20034;-72
2023/04/25 14:30:12;;;;;;;3.92;2.15;;;;;;;15.37;84.25;101785.50;10341294;28;20446;-74
2023/04/25 14:35:14;;;;;;;1.42;1.23;;;;;;;14.54;65.25;101780.22;10374468;28;20553;-70
2023/04/25 14:40:15;;;;;;;3.55;2.13;;;;;;;14.04;78.65;101774.00;10357558;28;20120;-70
2023/04/25 14:45:15;;;;;;;3.47;1.52;;;;;;;13.34;79.47;101792.09;10373697;28;20107;-70
2023/04/25 14:50:16;;;;;;;5.18;2.83;;;;;;;12.95;73.88;101785.97;10374695;28;20428;-73
2023/04/25 14:55:16;;;;;;;8.07;1.73;;;;;;;12.17;68.42;101811.06;10357544;28;20172;-71
2023/04/25 15:00:19;;;;;;;2.65;1.65;;;;;;;12.73;80.37;101801.41;10374253;28;20045;-71
2023/04/25 15:05:19;;;;;;;4.97;1.90;;;;;;;12.70;89.17;101799.06;10374359;28;20034;-73
2023/04/25 15:10:20;;;;;;;5.60;2.10;;;;;;;12.67;86.38;101799.44;10375118;28;20437;-71
2023/04/25 15:15:22;;;;;;;7.97;2.00;;;;;;;12.41;68.98;101794.50;10342138;28;20358;-72
2023/04/25 15:20:22;;;;;;;11.40;2.35;;;;;;;12.31;81.18;101799.34;10357309;28;20092;-72
2023/04/25 15:25:23;;;;;;;15.43;2.75;;;;;;;11.66;76.81;101814.38;10357142;28;20081;-71
2023/04/25 15:30:23;;;;;;;6.47;2.92;;;;;;;11.60;86.43;101806.97;10355262;28;20038;-72
2023/04/25 15:35:24;;;;;;;12.77;2.65;;;;;;;11.75;88.32;101807.84;10373485;28;20030;-71
2023/04/25 15:40:24;;;;;;;5.47;2.13;;;;;;;11.43;84.73;101803.53;10356577;28;20104;-72
2023/04/25 15:45:25;;;;;;;3.85;2.00;;;;;;;10.97;71.72;101816.19;10324538;28;20347;-70
2023/04/25 15:50:26;;;;;;;8.57;2.10;;;;;;;10.63;80.98;101820.94;10340268;28;20046;-73
2023/04/25 15:55:26;;;;;;;3.50;2.08;;;;;;;10.35;79.25;101822.38;10339995;28;20413;-72
2023/04/25 16:00:27;;;;;;;7.43;2.53;;;;;;;10.34;77.80;101821.53;10338186;28;20033;-73
2023/04/25 16:05:27;;;;;;;3.17;1.27;;;;;;;10.42;77.09;101835.03;10374161;28;20038;-73
2023/04/25 16:10:28;;;;;;;1.67;1.50;;;;;;;10.69;82.87;101835.66;10372741;28;20037;-73
2023/04/25 16:15:28;;;;;;;2.85;2.55;;;;;;;10.96;76.04;101852.47;10373788;28;20034;-72
2023/04/25 16:20:29;;;;;;;4.55;1.50;;;;;;;10.70;79.96;101848.16;10373585;28;20038;-72
2023/04/25 16:25:29;;;;;;;5.05;2.22;;;;;;;10.34;77.01;101847.75;10371808;28;20121;-72
2023/04/25 16:30:30;;;;;;;3.85;1.73;;;;;;;10.19;78.67;101851.16;10372380;28;20120;-73
2023/04/25 16:35:31;;;;;;;3.85;1.55;;;;;;;10.04;79.13;101846.59;10355113;28;20384;-71
2023/04/25 16:40:31;;;;;;;2.67;2.50;;;;;;;9.82;78.21;101843.56;10355300;28;20038;-72
2023/04/25 16:45:32;;;;;;;4.85;1.80;;;;;;;9.59;74.71;101842.56;10379795;28;20038;-72
2023/04/25 16:50:32;;;;;;;1.73;1.63;;;;;;;9.35;77.80;101837.94;10361612;28;20093;-72
2023/04/25 16:55:33;;;;;;;3.50;2.13;;;;;;;9.49;78.21;101846.25;10379013;28;20117;-73
2023/04/25 17:00:33;;;;;;;9.55;2.63;;;;;;;9.98;84.52;101848.13;10378804;28;20108;-72
2023/04/25 17:05:34;;;;;;;7.78;2.78;;;;;;;9.75;77.21;101843.41;10361081;28;20061;-74
2023/04/25 17:10:34;;;;;;;5.30;1.98;;;;;;;9.51;83.39;101857.75;10328442;28;20031;-72
2023/04/25 17:15:35;;;;;;;2.60;1.95;;;;;;;9.31;85.50;101856.34;10360900;28;20058;-72
2023/04/25 17:20:35;;;;;;;4.75;2.60;;;;;;;9.15;86.40;101861.72;10344733;28;20038;-72
2023/04/25 17:25:36;;;;;;;4.63;2.75;;;;;;;9.04;88.48;101871.84;10378056;28;20030;-71
2023/04/25 17:30:36;;;;;;;2.63;2.42;;;;;;;8.90;89.55;101868.91;10361075;28;20099;-72
2023/04/25 17:35:36;;;;;;;5.43;3.22;;;;;;;8.81;90.88;101876.13;10360881;28;20065;-72
2023/04/25 17:40:37;;;;;;;3.95;1.80;;;;;;;8.71;91.31;101875.38;10376973;28;20042;-72
2023/04/25 17:45:37;;;;;;;5.60;2.47;;;;;;;8.52;87.25;101871.06;10378142;28;20038;-71
2023/04/25 17:50:38;;;;;;;4.03;2.88;;;;;;;8.46;90.13;101877.97;10375691;28;20058;-71
2023/04/25 17:55:41;;;;;;;4.07;2.70;;;;;;;8.50;91.20;101882.03;10342346;28;20042;-72
2023/04/25 18:00:42;;;;;;;10.15;2.92;;;;;;;8.27;91.24;101872.78;10376563;28;20048;-73
2023/04/25 18:05:42;;;;;;;2.72;1.85;;;;;;;8.29;92.64;101886.94;10376567;28;20065;-73
2023/04/25 18:10:43;;;;;;;3.30;2.63;;;;;;;8.29;93.45;101881.53;10376199;28;20060;-73
2023/04/25 18:15:43;;;;;;;11.27;2.65;;;;;;;8.16;92.92;101887.34;10377113;28;20030;-71
2023/04/25 18:20:43;;;;;;;5.78;2.78;;;;;;;7.84;89.92;101888.78;10375837;28;20088;-72
2023/04/25 18:25:45;;;;;;;14.70;2.33;;;;;;;7.63;91.44;101889.09;10359251;28;20045;-72
2023/04/25 18:30:46;;;;;;;7.30;2.50;;;;;;;7.37;92.02;101882.75;10357435;28;20181;-72
2023/04/25 18:35:46;;;;;;;6.35;2.03;;;;;;;7.20;92.30;101895.22;10374740;28;20531;-71
2023/04/25 18:40:47;;;;;;;2.67;2.13;;;;;;;7.17;93.22;101900.91;10342829;28;20049;-75
2023/04/25 18:45:48;;;;;;;6.47;3.03;;;;;;;7.16;93.32;101894.69;10357272;28;20068;-72
2023/04/25 18:50:48;;;;;;;11.30;2.78;;;;;;;7.11;94.16;101902.34;10374843;28;20050;-72
2023/04/25 18:55:49;;;;;;;3.10;2.80;;;;;;;7.12;94.25;101909.44;10375575;28;20030;-73
2023/04/25 19:00:49;;;;;;;4.65;2.28;;;;;;;7.12;95.26;101898.69;10375055;28;20349;-73
2023/04/25 19:05:50;;;;;;;6.35;2.45;;;;;;;6.86;93.83;101892.28;10356636;28;20138;-72
2023/04/25 19:10:53;;;;;;;6.05;2.70;;;;;;;6.68;94.27;101908.38;10375188;28;20034;-73
2023/04/25 19:15:55;;;;;;;12.60;4.22;;;;;;;6.53;94.14;101906.13;10373908;28;20053;-72
2023/04/25 19:20:56;;;;;;;9.85;3.42;;;;;;;6.43;93.72;101912.56;10373835;28;20038;-71
2023/04/25 19:25:56;;;;;;;5.50;2.58;;;;;;;6.27;94.04;101924.75;10341123;28;20034;-72
2023/04/25 19:30:58;;;;;;;12.88;3.67;;;;;;;6.18;94.38;101925.63;10339579;28;20074;-72
2023/04/25 19:35:58;;;;;;;6.10;3.08;;;;;;;6.11;94.28;101929.88;10372889;28;20034;-73
2023/04/25 19:41:00;;;;;;;5.65;3.50;;;;;;;6.05;95.08;101930.44;10340666;28;20038;-74
2023/04/25 19:46:00;;;;;;;18.13;4.20;;;;;;;5.92;94.84;101937.94;10341807;28;20076;-73
2023/04/25 19:51:00;;;;;;;12.70;2.88;;;;;;;5.84;95.54;101941.34;10373991;28;20062;-73
2023/04/25 19:56:01;;;;;;;16.98;4.15;;;;;;;5.78;95.76;101948.13;10376224;28;20030;-72
2023/04/25 20:01:02;;;;;;;5.18;3.45;;;;;;;5.67;96.20;101942.84;10375357;28;20072;-74
2023/04/25 20:06:03;;;;;;;7.90;3.42;;;;;;;5.70;96.74;101947.09;10375420;28;20034;-73
2023/04/25 20:11:03;;;;;;;6.00;3.97;;;;;;;5.68;97.04;101939.19;10373812;28;20474;-73
2023/04/25 20:16:04;;;;;;;14.65;4.13;;;;;;;5.69;97.31;101948.94;10357421;28;20041;-72
2023/04/25 20:21:06;;;;;;;4.93;3.72;;;;;;;5.63;97.42;101943.28;10347668;28;20042;-72
2023/04/25 20:26:07;;;;;;;14.82;3.97;;;;;;;5.49;97.73;101945.41;10362139;28;20113;-74
2023/04/25 20:31:09;;;;;;;13.30;3.30;;;;;;;5.43;98.74;101943.25;10380823;28;20096;-73
2023/04/25 20:36:09;;;;;;;10.00;3.58;;;;;;;5.38;99.14;101941.97;10330374;28;20034;-72
2023/04/25 20:41:11;;;;;;;12.45;4.32;;;;;;;5.32;98.95;101948.72;10363448;28;20034;-71
2023/04/25 20:46:12;;;;;;;3.03;2.75;;;;;;;5.25;99.25;101944.91;10348560;28;20116;-74
2023/04/25 20:51:12;;;;;;;5.35;3.08;;;;;;;5.21;99.67;101936.28;10365812;28;20473;-71
2023/04/25 20:56:13;;;;;;;10.60;3.13;;;;;;;5.21;100.00;101948.84;10330926;28;20041;-72
2023/04/25 21:01:13;;;;;;;8.93;3.42;;;;;;;5.17;100.00;101950.97;10380019;28;20057;-74
2023/04/25 21:06:13;;;;;;;17.40;3.72;;;;;;;5.38;100.00;101941.97;10382763;28;20082;-72
2023/04/25 21:11:14;;;;;;;8.40;3.97;;;;;;;5.67;100.00;101958.13;10383924;28;20488;-74
2023/04/25 21:16:15;;;;;;;4.03;2.92;;;;;;;5.93;100.00;101951.25;10347183;28;20049;-73
2023/04/25 21:21:15;;;;;;;2.83;2.55;;;;;;;5.91;100.00;101969.34;10346926;28;20034;-77
2023/04/25 21:26:15;;;;;;;6.05;3.08;;;;;;;5.71;100.00;101964.91;10363102;28;20106;-76
2023/04/25 21:31:16;;;;;;;7.82;2.70;;;;;;;5.49;100.00;101958.81;10377536;28;20038;-74
2023/04/25 21:36:16;;;;;;;3.25;2.53;;;;;;;5.32;100.00;101954.94;10361070;28;20135;-73
2023/04/25 21:41:17;;;;;;;10.63;3.00;;;;;;;5.29;100.00;101952.53;10359941;28;20068;-70
2023/04/25 21:46:18;;;;;;;2.92;2.70;;;;;;;5.29;100.00;101954.38;10359723;28;20038;-73
2023/04/25 21:51:18;;;;;;;8.95;3.40;;;;;;;5.10;100.00;101958.69;10359354;28;20559;-72
2023/04/25 21:56:18;;;;;;;10.52;2.85;;;;;;;4.83;100.00;101958.44;10360463;28;20088;-72
2023/04/25 22:01:19;;;;;;;8.32;3.65;;;;;;;4.60;100.00;101963.13;10343940;28;20034;-71
2023/04/25 22:06:19;;;;;;;7.93;3.53;;;;;;;4.45;100.00;101964.44;10358489;28;20033;-72
2023/04/25 22:11:23;;;;;;;4.38;3.30;;;;;;;4.34;100.00;101965.34;10358450;28;20056;-72
2023/04/25 22:16:23;;;;;;;7.38;3.53;;;;;;;4.34;100.00;101970.72;10376430;28;20434;-71
2023/04/25 22:21:24;;;;;;;13.20;3.95;;;;;;;4.37;100.00;101959.72;10358171;28;20074;-73
2023/04/25 22:26:24;;;;;;;9.23;4.03;;;;;;;4.46;100.00;101969.66;10357817;28;20073;-74
2023/04/25 22:31:26;;;;;;;9.68;4.60;;;;;;;4.70;100.00;101977.44;10375365;28;20033;-73
2023/04/25 22:36:27;;;;;;;6.53;4.38;;;;;;;4.96;100.00;101979.69;10357601;28;20033;-73
2023/04/25 22:41:27;;;;;;;18.20;3.92;;;;;;;5.12;100.00;101991.63;10376073;28;20092;-72
2023/04/25 22:46:28;;;;;;;8.68;4.03;;;;;;;5.21;100.00;101975.72;10375164;28;20064;-72
2023/04/25 22:51:29;;;;;;;10.65;3.75;;;;;;;5.14;100.00;101983.47;10374579;28;20373;-71
2023/04/25 22:56:31;;;;;;;8.60;2.90;;;;;;;4.97;100.00;101986.75;10357052;28;20038;-70